createdAt,value
2023-07-24T00:00:28.947Z,0.00
2023-07-24T00:01:28.990Z,0.00
2023-07-24T00:02:28.974Z,0.00
2023-07-24T00:03:28.912Z,0.00
2023-07-24T00:04:28.962Z,0.00
2023-07-24T00:05:28.948Z,0.00
2023-07-24T00:06:29.216Z,0.00
2023-07-24T00:07:28.864Z,0.00
2023-07-24T00:08:28.864Z,0.00
2023-07-24T00:09:28.941Z,0.00
2023-07-24T00:10:28.848Z,0.00
2023-07-24T00:11:28.817Z,0.00
2023-07-24T00:12:28.821Z,0.00
2023-07-24T00:13:28.785Z,0.00
2023-07-24T00:14:28.783Z,0.00
2023-07-24T00:15:28.825Z,0.00
2023-07-24T00:16:29.150Z,0.00
2023-07-24T00:17:28.759Z,0.00
2023-07-24T00:18:28.732Z,0.00
2023-07-24T00:19:28.724Z,0.00
2023-07-24T00:20:28.719Z,0.00
2023-07-24T00:21:28.742Z,0.00
2023-07-24T00:22:28.689Z,0.00
2023-07-24T00:23:28.706Z,0.00
2023-07-24T00:24:28.691Z,0.00
2023-07-24T00:25:28.652Z,0.00
2023-07-24T00:26:29.110Z,0.00
2023-07-24T00:27:28.648Z,0.00
2023-07-24T00:28:28.612Z,0.00
2023-07-24T00:29:28.640Z,0.00
2023-07-24T00:30:28.601Z,0.00
2023-07-24T00:31:28.588Z,0.00
2023-07-24T00:32:28.708Z,0.00
2023-07-24T00:33:28.579Z,0.00
2023-07-24T00:34:29.798Z,0.00
2023-07-24T00:35:28.538Z,0.00
2023-07-24T00:36:28.981Z,0.00
2023-07-24T00:37:28.569Z,0.00
2023-07-24T00:38:28.516Z,0.00
2023-07-24T00:39:28.528Z,0.00
2023-07-24T00:40:28.561Z,0.00
2023-07-24T00:41:28.523Z,0.00
2023-07-24T00:42:28.515Z,0.00
2023-07-24T00:43:28.516Z,0.00
2023-07-24T00:44:28.504Z,0.00
2023-07-24T00:45:28.458Z,0.00
2023-07-24T00:46:28.725Z,0.00
2023-07-24T00:47:28.499Z,0.00
2023-07-24T00:48:28.498Z,0.00
2023-07-24T00:49:28.380Z,0.00
2023-07-24T00:50:28.382Z,0.00
2023-07-24T00:51:28.352Z,0.00
2023-07-24T00:52:28.342Z,0.00
2023-07-24T00:53:28.367Z,0.00
2023-07-24T00:54:28.325Z,0.00
2023-07-24T00:55:28.304Z,0.00
2023-07-24T00:56:28.602Z,0.00
2023-07-24T00:57:28.281Z,0.00
2023-07-24T00:58:28.306Z,0.00
2023-07-24T00:59:28.260Z,0.00
2023-07-24T01:00:35.602Z,0.00
2023-07-24T01:01:28.243Z,0.00
2023-07-24T01:02:28.318Z,0.00
2023-07-24T01:03:28.213Z,0.00
2023-07-24T01:04:28.242Z,0.00
2023-07-24T01:05:28.189Z,0.00
2023-07-24T01:06:28.744Z,0.00
2023-07-24T01:07:28.160Z,0.00
2023-07-24T01:08:28.159Z,0.00
2023-07-24T01:09:28.140Z,0.00
2023-07-24T01:10:28.140Z,0.00
2023-07-24T01:11:28.143Z,0.00
2023-07-24T01:12:28.151Z,0.00
2023-07-24T01:13:28.098Z,0.00
2023-07-24T01:14:28.089Z,0.00
2023-07-24T01:15:28.080Z,0.00
2023-07-24T01:16:28.396Z,0.00
2023-07-24T01:17:28.093Z,0.00
2023-07-24T01:18:28.057Z,0.00
2023-07-24T01:19:28.038Z,0.00
2023-07-24T01:20:28.030Z,0.00
2023-07-24T01:21:28.011Z,0.00
2023-07-24T01:22:28.059Z,0.00
2023-07-24T01:23:27.980Z,0.00
2023-07-24T01:24:28.006Z,0.00
2023-07-24T01:25:27.953Z,0.00
2023-07-24T01:26:28.295Z,0.00
2023-07-24T01:27:27.984Z,0.00
2023-07-24T01:28:27.943Z,0.00
2023-07-24T01:29:27.907Z,0.00
2023-07-24T01:30:27.915Z,0.00
2023-07-24T01:31:27.887Z,0.00
2023-07-24T01:32:27.939Z,0.00
2023-07-24T01:33:27.904Z,0.00
2023-07-24T01:34:27.856Z,0.00
2023-07-24T01:35:27.842Z,0.00
2023-07-24T01:36:28.244Z,0.00
2023-07-24T01:37:27.851Z,0.00
2023-07-24T01:38:27.823Z,0.00
2023-07-24T01:39:27.794Z,0.00
2023-07-24T01:40:27.855Z,0.00
2023-07-24T01:41:27.787Z,0.00
2023-07-24T01:42:27.770Z,0.00
2023-07-24T01:43:27.789Z,0.00
2023-07-24T01:44:27.737Z,0.00
2023-07-24T01:45:27.730Z,0.00
2023-07-24T01:46:28.369Z,0.00
2023-07-24T01:47:27.838Z,0.00
2023-07-24T01:48:27.711Z,0.00
2023-07-24T01:49:27.682Z,0.00
2023-07-24T01:50:27.668Z,0.00
2023-07-24T01:51:27.724Z,0.00
2023-07-24T01:52:27.669Z,0.00
2023-07-24T01:53:27.691Z,0.00
2023-07-24T01:54:27.625Z,0.00
2023-07-24T01:55:27.682Z,0.00
2023-07-24T01:56:28.146Z,0.00
2023-07-24T01:57:27.589Z,0.00
2023-07-24T01:58:27.653Z,0.00
2023-07-24T01:59:27.559Z,0.00
2023-07-24T02:00:27.550Z,0.00
2023-07-24T02:01:27.631Z,0.00
2023-07-24T02:02:27.577Z,0.00
2023-07-24T02:03:27.637Z,0.00
2023-07-24T02:04:27.514Z,0.00
2023-07-24T02:05:27.492Z,0.00
2023-07-24T02:06:27.860Z,0.00
2023-07-24T02:07:27.475Z,0.00
2023-07-24T02:08:27.520Z,0.00
2023-07-24T02:09:27.444Z,0.00
2023-07-24T02:10:27.471Z,0.00
2023-07-24T02:11:27.421Z,0.00
2023-07-24T02:12:27.419Z,0.00
2023-07-24T02:13:27.454Z,0.00
2023-07-24T02:14:27.395Z,0.00
2023-07-24T02:15:27.372Z,0.00
2023-07-24T02:16:27.462Z,0.00
2023-07-24T02:17:27.377Z,0.00
2023-07-24T02:18:27.435Z,0.00
2023-07-24T02:19:27.339Z,0.00
2023-07-24T02:20:27.329Z,0.00
2023-07-24T02:21:27.301Z,0.00
2023-07-24T02:22:27.375Z,0.00
2023-07-24T02:23:27.362Z,0.00
2023-07-24T02:24:27.300Z,0.00
2023-07-24T02:25:27.265Z,0.00
2023-07-24T02:26:27.642Z,0.00
2023-07-24T02:27:27.239Z,0.00
2023-07-24T02:28:27.281Z,0.00
2023-07-24T02:29:27.222Z,0.00
2023-07-24T02:30:27.219Z,0.00
2023-07-24T02:31:27.279Z,0.00
2023-07-24T02:32:27.211Z,0.00
2023-07-24T02:33:27.177Z,0.00
2023-07-24T02:34:27.278Z,0.00
2023-07-24T02:35:27.167Z,0.00
2023-07-24T02:36:27.637Z,0.00
2023-07-24T02:37:27.127Z,0.00
2023-07-24T02:38:27.126Z,0.00
2023-07-24T02:39:27.161Z,0.00
2023-07-24T02:40:27.112Z,0.00
2023-07-24T02:41:27.087Z,0.00
2023-07-24T02:42:27.084Z,0.00
2023-07-24T02:43:27.071Z,0.00
2023-07-24T02:44:27.051Z,0.00
2023-07-24T02:45:27.063Z,0.00
2023-07-24T02:46:27.221Z,0.00
2023-07-24T02:47:27.033Z,0.00
2023-07-24T02:48:27.006Z,0.00
2023-07-24T02:49:27.057Z,0.00
2023-07-24T02:50:26.995Z,0.00
2023-07-24T02:51:27.085Z,0.00
2023-07-24T02:52:26.959Z,0.00
2023-07-24T02:53:26.945Z,0.00
2023-07-24T02:54:26.947Z,0.00
2023-07-24T02:55:26.925Z,0.00
2023-07-24T02:56:27.067Z,0.00
2023-07-24T02:57:26.897Z,0.00
2023-07-24T02:58:26.899Z,0.00
2023-07-24T02:59:26.894Z,0.00
2023-07-24T03:00:26.874Z,0.00
2023-07-24T03:01:26.903Z,0.00
2023-07-24T03:02:26.959Z,0.00
2023-07-24T03:03:26.920Z,0.00
2023-07-24T03:04:26.824Z,0.00
2023-07-24T03:05:26.817Z,0.00
2023-07-24T03:06:26.966Z,0.00
2023-07-24T03:07:26.819Z,0.00
2023-07-24T03:08:26.782Z,0.00
2023-07-24T03:09:26.775Z,0.00
2023-07-24T03:10:26.810Z,0.00
2023-07-24T03:11:26.744Z,0.00
2023-07-24T03:12:26.729Z,0.00
2023-07-24T03:13:26.721Z,0.00
2023-07-24T03:14:26.704Z,0.00
2023-07-24T03:15:26.687Z,0.00
2023-07-24T03:16:26.820Z,0.00
2023-07-24T03:17:26.683Z,0.00
2023-07-24T03:18:26.679Z,0.00
2023-07-24T03:19:26.648Z,0.00
2023-07-24T03:20:26.645Z,0.00
2023-07-24T03:21:26.696Z,0.00
2023-07-24T03:22:26.612Z,0.00
2023-07-24T03:23:26.606Z,0.00
2023-07-24T03:24:26.632Z,0.00
2023-07-24T03:25:26.590Z,0.00
2023-07-24T03:26:26.623Z,4.00
2023-07-24T03:27:26.554Z,4.00
2023-07-24T03:28:26.548Z,0.00
2023-07-24T03:29:26.532Z,0.00
2023-07-24T03:30:26.563Z,4.00
2023-07-24T03:31:26.594Z,4.00
2023-07-24T03:32:26.579Z,4.00
2023-07-24T03:33:26.524Z,4.00
2023-07-24T03:34:26.484Z,4.00
2023-07-24T03:35:26.459Z,4.00
2023-07-24T03:36:26.458Z,4.00
2023-07-24T03:37:26.443Z,4.00
2023-07-24T03:38:26.474Z,4.00
2023-07-24T03:39:26.414Z,4.00
2023-07-24T03:40:26.418Z,8.00
2023-07-24T03:41:26.396Z,8.00
2023-07-24T03:42:26.389Z,4.00
2023-07-24T03:43:26.409Z,4.00
2023-07-24T03:44:26.355Z,8.00
2023-07-24T03:45:26.372Z,8.00
2023-07-24T03:46:26.375Z,12.00
2023-07-24T03:47:26.375Z,12.00
2023-07-24T03:48:26.316Z,20.00
2023-07-24T03:49:26.314Z,16.00
2023-07-24T03:50:26.292Z,20.00
2023-07-24T03:51:26.273Z,24.00
2023-07-24T03:52:26.270Z,28.00
2023-07-24T03:53:26.295Z,32.00
2023-07-24T03:54:26.262Z,40.00
2023-07-24T03:55:26.262Z,40.00
2023-07-24T03:56:26.255Z,48.00
2023-07-24T03:57:26.206Z,52.00
2023-07-24T03:58:26.196Z,48.00
2023-07-24T03:59:26.230Z,48.00
2023-07-24T04:00:26.167Z,48.00
2023-07-24T04:01:26.235Z,52.00
2023-07-24T04:02:26.199Z,52.00
2023-07-24T04:03:26.238Z,60.00
2023-07-24T04:04:26.125Z,48.00
2023-07-24T04:05:26.141Z,40.00
2023-07-24T04:06:26.125Z,36.00
2023-07-24T04:07:26.125Z,28.00
2023-07-24T04:08:26.084Z,28.00
2023-07-24T04:09:26.108Z,36.00
2023-07-24T04:10:26.151Z,40.00
2023-07-24T04:11:26.046Z,48.00
2023-07-24T04:12:26.038Z,52.00
2023-07-24T04:13:26.016Z,28.00
2023-07-24T04:14:26.006Z,24.00
2023-07-24T04:15:26.040Z,40.00
2023-07-24T04:16:28.271Z,56.00
2023-07-24T04:17:26.014Z,68.00
2023-07-24T04:18:25.963Z,100.00
2023-07-24T04:19:26.104Z,124.00
2023-07-24T04:20:25.951Z,124.00
2023-07-24T04:21:25.926Z,104.00
2023-07-24T04:22:25.919Z,120.00
2023-07-24T04:23:25.907Z,136.00
2023-07-24T04:24:25.948Z,128.00
2023-07-24T04:25:25.901Z,120.00
2023-07-24T04:26:25.898Z,92.00
2023-07-24T04:27:29.076Z,72.00
2023-07-24T04:28:30.785Z,80.00
2023-07-24T04:29:29.255Z,100.00
2023-07-24T04:30:29.052Z,120.00
2023-07-24T04:31:28.416Z,132.00
2023-07-24T04:32:27.918Z,120.00
2023-07-24T04:33:26.847Z,100.00
2023-07-24T04:34:27.162Z,104.00
2023-07-24T04:35:41.001Z,128.00
2023-07-24T04:36:25.771Z,136.00
2023-07-24T04:37:25.761Z,148.00
2023-07-24T04:38:25.725Z,140.00
2023-07-24T04:39:25.729Z,132.00
2023-07-24T04:40:25.709Z,96.00
2023-07-24T04:41:25.715Z,48.00
2023-07-24T04:42:25.677Z,48.00
2023-07-24T04:43:25.668Z,48.00
2023-07-24T04:44:25.661Z,32.00
2023-07-24T04:45:25.668Z,28.00
2023-07-24T04:46:25.730Z,48.00
2023-07-24T04:47:25.657Z,44.00
2023-07-24T04:48:25.611Z,76.00
2023-07-24T04:49:25.682Z,96.00
2023-07-24T04:50:25.588Z,96.00
2023-07-24T04:51:36.174Z,80.00
2023-07-24T04:52:25.620Z,76.00
2023-07-24T04:53:25.555Z,72.00
2023-07-24T04:54:25.533Z,76.00
2023-07-24T04:55:25.529Z,92.00
2023-07-24T04:56:25.512Z,72.00
2023-07-24T04:57:25.512Z,64.00
2023-07-24T04:58:25.600Z,96.00
2023-07-24T04:59:25.494Z,120.00
2023-07-24T05:00:25.469Z,96.00
2023-07-24T05:01:25.525Z,88.00
2023-07-24T05:02:25.453Z,88.00
2023-07-24T05:03:25.468Z,112.00
2023-07-24T05:04:25.484Z,128.00
2023-07-24T05:05:25.418Z,112.00
2023-07-24T05:06:25.396Z,128.00
2023-07-24T05:07:25.392Z,148.00
2023-07-24T05:08:25.371Z,140.00
2023-07-24T05:09:25.449Z,140.00
2023-07-24T05:10:25.401Z,156.00
2023-07-24T05:11:25.348Z,160.00
2023-07-24T05:12:25.324Z,120.00
2023-07-24T05:13:25.325Z,132.00
2023-07-24T05:14:25.305Z,156.00
2023-07-24T05:15:25.333Z,132.00
2023-07-24T05:16:25.309Z,160.00
2023-07-24T05:17:25.325Z,208.00
2023-07-24T05:18:25.257Z,264.00
2023-07-24T05:19:25.256Z,356.00
2023-07-24T05:20:25.269Z,448.00
2023-07-24T05:21:25.231Z,464.00
2023-07-24T05:22:25.209Z,504.00
2023-07-24T05:23:25.204Z,584.00
2023-07-24T05:24:25.246Z,604.00
2023-07-24T05:25:25.182Z,696.00
2023-07-24T05:26:25.178Z,744.00
2023-07-24T05:27:25.159Z,748.00
2023-07-24T05:28:25.140Z,764.00
2023-07-24T05:29:25.138Z,828.00
2023-07-24T05:30:25.116Z,912.00
2023-07-24T05:31:25.158Z,844.00
2023-07-24T05:32:25.131Z,872.00
2023-07-24T05:33:25.101Z,876.00
2023-07-24T05:34:25.070Z,712.00
2023-07-24T05:35:25.064Z,548.00
2023-07-24T05:36:25.054Z,476.00
2023-07-24T05:37:25.042Z,476.00
2023-07-24T05:38:25.059Z,452.00
2023-07-24T05:39:25.017Z,444.00
2023-07-24T05:40:25.013Z,432.00
2023-07-24T05:41:24.999Z,468.00
2023-07-24T05:42:24.986Z,492.00
2023-07-24T05:43:25.056Z,496.00
2023-07-24T05:44:24.950Z,532.00
2023-07-24T05:45:24.955Z,472.00
2023-07-24T05:46:24.978Z,468.00
2023-07-24T05:47:24.941Z,480.00
2023-07-24T05:48:24.969Z,472.00
2023-07-24T05:49:24.902Z,308.00
2023-07-24T05:50:24.895Z,308.00
2023-07-24T05:51:24.889Z,272.00
2023-07-24T05:52:24.863Z,312.00
2023-07-24T05:53:24.864Z,312.00
2023-07-24T05:54:24.898Z,296.00
2023-07-24T05:55:24.882Z,264.00
2023-07-24T05:56:24.818Z,368.00
2023-07-24T05:57:24.812Z,480.00
2023-07-24T05:58:24.797Z,448.00
2023-07-24T05:59:24.789Z,472.00
2023-07-24T06:00:24.937Z,440.00
2023-07-24T06:01:24.782Z,528.00
2023-07-24T06:02:24.866Z,580.00
2023-07-24T06:03:24.951Z,588.00
2023-07-24T06:04:24.816Z,548.00
2023-07-24T06:05:24.722Z,444.00
2023-07-24T06:06:24.810Z,416.00
2023-07-24T06:07:24.712Z,436.00
2023-07-24T06:08:24.703Z,628.00
2023-07-24T06:09:24.694Z,812.00
2023-07-24T06:10:24.678Z,736.00
2023-07-24T06:11:24.736Z,632.00
2023-07-24T06:12:24.634Z,552.00
2023-07-24T06:13:24.640Z,520.00
2023-07-24T06:14:24.629Z,492.00
2023-07-24T06:15:24.604Z,396.00
2023-07-24T06:16:24.609Z,508.00
2023-07-24T06:17:24.794Z,732.00
2023-07-24T06:18:24.569Z,960.00
2023-07-24T06:19:24.557Z,632.00
2023-07-24T06:20:24.554Z,444.00
2023-07-24T06:21:24.556Z,324.00
2023-07-24T06:22:24.516Z,356.00
2023-07-24T06:23:24.585Z,428.00
2023-07-24T06:24:24.644Z,472.00
2023-07-24T06:25:24.486Z,728.00
2023-07-24T06:26:24.480Z,780.00
2023-07-24T06:27:24.470Z,696.00
2023-07-24T06:28:24.451Z,596.00
2023-07-24T06:29:24.510Z,576.00
2023-07-24T06:30:25.187Z,568.00
2023-07-24T06:31:24.438Z,600.00
2023-07-24T06:32:24.416Z,476.00
2023-07-24T06:33:24.449Z,612.00
2023-07-24T06:34:24.384Z,560.00
2023-07-24T06:35:24.396Z,612.00
2023-07-24T06:36:24.386Z,496.00
2023-07-24T06:37:24.380Z,612.00
2023-07-24T06:38:24.338Z,552.00
2023-07-24T06:39:24.333Z,640.00
2023-07-24T06:40:24.335Z,764.00
2023-07-24T06:41:24.412Z,708.00
2023-07-24T06:42:24.291Z,920.00
2023-07-24T06:43:24.283Z,696.00
2023-07-24T06:44:24.272Z,476.00
2023-07-24T06:45:24.268Z,612.00
2023-07-24T06:46:24.308Z,940.00
2023-07-24T06:47:24.486Z,848.00
2023-07-24T06:48:24.216Z,848.00
2023-07-24T06:49:24.213Z,964.00
2023-07-24T06:50:24.194Z,1016.00
2023-07-24T06:51:24.193Z,1140.00
2023-07-24T06:52:24.180Z,1056.00
2023-07-24T06:53:24.198Z,796.00
2023-07-24T06:54:24.147Z,764.00
2023-07-24T06:55:24.175Z,668.00
2023-07-24T06:56:24.145Z,708.00
2023-07-24T06:57:24.130Z,756.00
2023-07-24T06:58:24.119Z,788.00
2023-07-24T06:59:24.101Z,936.00
2023-07-24T07:00:24.084Z,972.00
2023-07-24T07:01:24.130Z,944.00
2023-07-24T07:02:24.134Z,904.00
2023-07-24T07:03:24.142Z,828.00
2023-07-24T07:04:24.057Z,948.00
2023-07-24T07:05:24.047Z,1020.00
2023-07-24T07:07:24.017Z,924.00
2023-07-24T07:08:24.065Z,1020.00
2023-07-24T07:09:23.986Z,1088.00
2023-07-24T07:10:23.967Z,920.00
2023-07-24T07:11:23.964Z,1296.00
2023-07-24T07:12:23.945Z,1304.00
2023-07-24T07:13:24.017Z,1672.00
2023-07-24T07:14:23.942Z,1280.00
2023-07-24T07:15:23.923Z,1072.00
2023-07-24T07:16:23.938Z,1176.00
2023-07-24T07:17:23.968Z,1356.00
2023-07-24T07:18:23.882Z,984.00
2023-07-24T07:19:23.880Z,944.00
2023-07-24T07:20:23.881Z,1184.00
2023-07-24T07:21:23.849Z,1172.00
2023-07-24T07:22:23.842Z,1168.00
2023-07-24T07:23:23.878Z,1148.00
2023-07-24T07:24:23.836Z,1084.00
2023-07-24T07:25:23.805Z,1028.00
2023-07-24T07:26:23.787Z,1168.00
2023-07-24T07:27:23.780Z,924.00
2023-07-24T07:28:23.807Z,880.00
2023-07-24T07:29:23.795Z,1380.00
2023-07-24T07:30:23.756Z,1596.00
2023-07-24T07:31:23.759Z,1544.00
2023-07-24T07:32:23.731Z,1396.00
2023-07-24T07:33:23.714Z,1172.00
2023-07-24T07:34:23.736Z,984.00
2023-07-24T07:35:23.695Z,708.00
2023-07-24T07:36:23.686Z,740.00
2023-07-24T07:37:23.686Z,824.00
2023-07-24T07:38:23.706Z,800.00
2023-07-24T07:39:23.690Z,668.00
2023-07-24T07:40:23.712Z,872.00
2023-07-24T07:41:23.620Z,736.00
2023-07-24T07:42:23.601Z,812.00
2023-07-24T07:43:23.602Z,840.00
2023-07-24T07:44:23.579Z,512.00
2023-07-24T07:45:23.587Z,588.00
2023-07-24T07:46:23.596Z,548.00
2023-07-24T07:47:23.589Z,420.00
2023-07-24T07:48:23.538Z,708.00
2023-07-24T07:49:23.533Z,656.00
2023-07-24T07:50:23.577Z,672.00
2023-07-24T07:51:23.501Z,784.00
2023-07-24T07:52:23.522Z,1040.00
2023-07-24T07:53:23.472Z,912.00
2023-07-24T07:54:23.471Z,752.00
2023-07-24T07:55:23.508Z,624.00
2023-07-24T07:56:30.422Z,860.00
2023-07-24T07:57:23.435Z,816.00
2023-07-24T07:58:23.418Z,888.00
2023-07-24T07:59:23.450Z,832.00
2023-07-24T08:00:23.754Z,636.00
2023-07-24T08:01:23.428Z,668.00
2023-07-24T08:02:23.413Z,744.00
2023-07-24T08:03:23.419Z,912.00
2023-07-24T08:04:23.354Z,700.00
2023-07-24T08:05:23.394Z,648.00
2023-07-24T08:06:23.365Z,572.00
2023-07-24T08:07:23.316Z,1056.00
2023-07-24T08:08:23.307Z,1124.00
2023-07-24T08:09:23.296Z,1212.00
2023-07-24T08:10:23.340Z,1228.00
2023-07-24T08:11:23.294Z,1192.00
2023-07-24T08:12:23.299Z,1012.00
2023-07-24T08:13:23.247Z,992.00
2023-07-24T08:14:23.259Z,1088.00
2023-07-24T08:15:23.226Z,1220.00
2023-07-24T08:16:23.299Z,992.00
2023-07-24T08:17:23.273Z,1128.00
2023-07-24T08:18:23.243Z,1352.00
2023-07-24T08:19:23.176Z,1516.00
2023-07-24T08:20:23.166Z,1464.00
2023-07-24T08:21:23.235Z,1428.00
2023-07-24T08:22:23.139Z,1256.00
2023-07-24T08:23:23.141Z,1176.00
2023-07-24T08:24:23.179Z,1088.00
2023-07-24T08:25:23.111Z,1084.00
2023-07-24T08:26:23.088Z,1316.00
2023-07-24T08:27:23.078Z,1236.00
2023-07-24T08:28:23.142Z,1508.00
2023-07-24T08:29:24.001Z,1368.00
2023-07-24T08:30:23.150Z,1400.00
2023-07-24T08:31:23.090Z,1548.00
2023-07-24T08:32:23.055Z,1496.00
2023-07-24T08:33:23.008Z,1284.00
2023-07-24T08:34:23.005Z,1444.00
2023-07-24T08:35:22.997Z,1560.00
2023-07-24T08:36:23.033Z,1480.00
2023-07-24T08:37:22.981Z,1540.00
2023-07-24T08:38:22.950Z,1724.00
2023-07-24T08:39:22.951Z,1136.00
2023-07-24T08:40:22.940Z,1004.00
2023-07-24T08:41:22.939Z,1376.00
2023-07-24T08:42:22.915Z,1708.00
2023-07-24T08:43:24.151Z,1240.00
2023-07-24T08:44:22.886Z,1104.00
2023-07-24T08:45:22.885Z,1368.00
2023-07-24T08:46:24.586Z,1176.00
2023-07-24T08:47:22.862Z,2084.00
2023-07-24T08:48:22.843Z,1444.00
2023-07-24T08:49:22.832Z,1020.00
2023-07-24T08:50:22.872Z,1072.00
2023-07-24T08:51:22.832Z,1548.00
2023-07-24T08:52:35.327Z,1792.00
2023-07-24T08:53:23.837Z,1264.00
2023-07-24T08:54:22.789Z,1056.00
2023-07-24T08:55:22.783Z,1076.00
2023-07-24T08:56:22.750Z,1120.00
2023-07-24T08:57:22.741Z,932.00
2023-07-24T08:58:22.851Z,976.00
2023-07-24T08:59:22.733Z,764.00
2023-07-24T09:00:22.705Z,684.00
2023-07-24T09:01:22.693Z,688.00
2023-07-24T09:02:22.927Z,1120.00
2023-07-24T09:03:22.766Z,1340.00
2023-07-24T09:04:22.692Z,1120.00
2023-07-24T09:05:22.647Z,1528.00
2023-07-24T09:06:22.638Z,1684.00
2023-07-24T09:07:22.620Z,1492.00
2023-07-24T09:08:22.710Z,1572.00
2023-07-24T09:09:22.610Z,904.00
2023-07-24T09:10:22.593Z,896.00
2023-07-24T09:11:22.579Z,1084.00
2023-07-24T09:12:22.565Z,728.00
2023-07-24T09:13:22.606Z,928.00
2023-07-24T09:14:22.546Z,932.00
2023-07-24T09:15:22.535Z,788.00
2023-07-24T09:16:22.560Z,888.00
2023-07-24T09:17:22.515Z,1100.00
2023-07-24T09:18:22.526Z,944.00
2023-07-24T09:21:23.106Z,660.00
2023-07-24T09:22:23.336Z,804.00
2023-07-24T09:23:22.506Z,1136.00
2023-07-24T09:24:22.443Z,1020.00
2023-07-24T09:25:22.416Z,728.00
2023-07-24T09:26:22.403Z,824.00
2023-07-24T09:27:22.915Z,788.00
2023-07-24T09:28:22.380Z,600.00
2023-07-24T09:29:22.431Z,484.00
2023-07-24T09:30:22.406Z,380.00
2023-07-24T09:31:22.350Z,388.00
2023-07-24T09:32:22.424Z,412.00
2023-07-24T09:33:22.343Z,368.00
2023-07-24T09:34:22.304Z,376.00
2023-07-24T09:35:22.368Z,564.00
2023-07-24T09:36:22.286Z,552.00
2023-07-24T09:37:22.278Z,620.00
2023-07-24T09:38:22.265Z,504.00
2023-07-24T09:39:22.253Z,464.00
2023-07-24T09:40:22.238Z,724.00
2023-07-24T09:41:22.247Z,560.00
2023-07-24T09:42:22.220Z,548.00
2023-07-24T09:43:37.985Z,428.00
2023-07-24T09:44:23.245Z,444.00
2023-07-24T09:45:23.396Z,644.00
2023-07-24T09:46:22.193Z,592.00
2023-07-24T09:49:22.193Z,1088.00
2023-07-24T09:50:22.127Z,924.00
2023-07-24T09:51:22.131Z,1448.00
2023-07-24T09:52:22.098Z,1088.00
2023-07-24T09:53:22.081Z,964.00
2023-07-24T09:54:22.077Z,848.00
2023-07-24T09:55:22.082Z,1120.00
2023-07-24T09:56:31.621Z,1160.00
2023-07-24T09:57:23.441Z,1340.00
2023-07-24T09:58:22.025Z,1336.00
2023-07-24T09:59:22.014Z,1096.00
2023-07-24T10:00:22.013Z,1124.00
2023-07-24T10:01:22.001Z,1072.00
2023-07-24T10:02:22.071Z,884.00
2023-07-24T10:03:21.993Z,1056.00
2023-07-24T10:04:21.994Z,816.00
2023-07-24T10:05:21.992Z,804.00
2023-07-24T10:06:21.936Z,988.00
2023-07-24T10:07:21.914Z,1584.00
2023-07-24T10:08:21.969Z,1544.00
2023-07-24T10:09:21.899Z,1596.00
2023-07-24T10:10:21.937Z,1404.00
2023-07-24T10:11:21.873Z,1444.00
2023-07-24T10:12:21.876Z,1692.00
2023-07-24T10:13:21.845Z,1488.00
2023-07-24T10:14:21.883Z,1312.00
2023-07-24T10:15:21.828Z,1760.00
2023-07-24T10:16:21.836Z,1844.00
2023-07-24T10:17:21.802Z,1832.00
2023-07-24T10:18:21.810Z,1700.00
2023-07-24T10:19:21.830Z,1436.00
2023-07-24T10:20:21.781Z,1252.00
2023-07-24T10:21:21.772Z,892.00
2023-07-24T10:22:23.493Z,936.00
2023-07-24T10:23:21.727Z,796.00
2023-07-24T10:24:35.527Z,676.00
2023-07-24T10:25:22.737Z,956.00
2023-07-24T10:26:21.697Z,1176.00
2023-07-24T10:27:21.679Z,1488.00
2023-07-24T10:28:21.677Z,1820.00
2023-07-24T10:29:21.687Z,1684.00
2023-07-24T10:30:34.595Z,1764.00
2023-07-24T10:31:22.879Z,1588.00
2023-07-24T10:32:21.710Z,1784.00
2023-07-24T10:33:21.849Z,2336.00
2023-07-24T10:34:21.612Z,1516.00
2023-07-24T10:35:21.583Z,1392.00
2023-07-24T10:36:21.643Z,1660.00
2023-07-24T10:37:21.584Z,1780.00
2023-07-24T10:38:21.560Z,2284.00
2023-07-24T10:39:21.545Z,2700.00
2023-07-24T10:40:21.543Z,2728.00
2023-07-24T10:41:21.521Z,2360.00
2023-07-24T10:42:21.546Z,2464.00
2023-07-24T10:43:21.604Z,2252.00
2023-07-24T10:44:21.494Z,2236.00
2023-07-24T10:45:21.468Z,2176.00
2023-07-24T10:46:21.538Z,2200.00
2023-07-24T10:47:21.692Z,2104.00
2023-07-24T10:48:21.481Z,1756.00
2023-07-24T10:49:21.438Z,1560.00
2023-07-24T10:50:21.430Z,1456.00
2023-07-24T10:51:21.404Z,1416.00
2023-07-24T10:52:28.463Z,1752.00
2023-07-24T10:53:21.394Z,1908.00
2023-07-24T10:54:21.380Z,2224.00
2023-07-24T10:55:21.360Z,2128.00
2023-07-24T10:56:21.353Z,2392.00
2023-07-24T10:57:21.399Z,2332.00
2023-07-24T10:58:21.381Z,2224.00
2023-07-24T10:59:21.317Z,2068.00
2023-07-24T11:00:21.312Z,2176.00
2023-07-24T11:01:21.359Z,1924.00
2023-07-24T11:02:21.321Z,1732.00
2023-07-24T11:03:21.304Z,1872.00
2023-07-24T11:04:21.286Z,2108.00
2023-07-24T11:05:21.247Z,2068.00
2023-07-24T11:06:21.248Z,1732.00
2023-07-24T11:07:21.260Z,2068.00
2023-07-24T11:08:21.223Z,1416.00
2023-07-24T11:09:21.213Z,1724.00
2023-07-24T11:10:21.651Z,1760.00
2023-07-24T11:11:21.167Z,1592.00
2023-07-24T11:12:21.183Z,1316.00
2023-07-24T11:13:21.238Z,1276.00
2023-07-24T11:14:21.143Z,1352.00
2023-07-24T11:15:21.133Z,1020.00
2023-07-24T11:16:21.161Z,908.00
2023-07-24T11:17:21.120Z,748.00
2023-07-24T11:18:21.096Z,840.00
2023-07-24T11:19:21.099Z,1564.00
2023-07-24T11:20:21.076Z,1784.00
2023-07-24T11:21:21.062Z,1828.00
2023-07-24T11:22:21.052Z,2248.00
2023-07-24T11:23:21.034Z,2444.00
2023-07-24T11:24:21.127Z,2728.00
2023-07-24T11:25:21.018Z,2712.00
2023-07-24T11:26:21.026Z,2504.00
2023-07-24T11:27:20.997Z,1852.00
2023-07-24T11:28:20.992Z,1808.00
2023-07-24T11:29:20.973Z,2096.00
2023-07-24T11:30:21.028Z,1544.00
2023-07-24T11:31:21.054Z,1516.00
2023-07-24T11:32:20.940Z,1640.00
2023-07-24T11:33:20.927Z,1580.00
2023-07-24T11:34:20.925Z,1380.00
2023-07-24T11:35:20.893Z,1220.00
2023-07-24T11:36:20.939Z,968.00
2023-07-24T11:37:20.910Z,760.00
2023-07-24T11:38:20.871Z,740.00
2023-07-24T11:39:20.849Z,864.00
2023-07-24T11:40:20.906Z,876.00
2023-07-24T11:41:20.833Z,700.00
2023-07-24T11:42:20.852Z,612.00
2023-07-24T11:43:20.814Z,604.00
2023-07-24T11:44:20.794Z,516.00
2023-07-24T11:45:20.790Z,436.00
2023-07-24T11:46:20.878Z,380.00
2023-07-24T11:47:20.792Z,428.00
2023-07-24T11:48:20.761Z,452.00
2023-07-24T11:49:20.769Z,376.00
2023-07-24T11:50:20.760Z,572.00
2023-07-24T11:51:20.708Z,820.00
2023-07-24T11:52:20.702Z,908.00
2023-07-24T11:53:20.683Z,688.00
2023-07-24T11:54:20.685Z,624.00
2023-07-24T11:55:20.674Z,744.00
2023-07-24T11:56:20.727Z,516.00
2023-07-24T11:57:20.639Z,360.00
2023-07-24T11:58:20.646Z,376.00
2023-07-24T11:59:20.616Z,396.00
2023-07-24T12:00:20.616Z,336.00
2023-07-24T12:01:20.682Z,216.00
2023-07-24T12:02:20.686Z,156.00
2023-07-24T12:03:20.666Z,160.00
2023-07-24T12:04:20.620Z,172.00
2023-07-24T12:05:20.556Z,180.00
2023-07-24T12:06:20.543Z,176.00
2023-07-24T12:07:20.568Z,180.00
2023-07-24T12:08:20.520Z,184.00
2023-07-24T12:09:20.501Z,192.00
2023-07-24T12:10:20.501Z,204.00
2023-07-24T12:11:20.481Z,128.00
2023-07-24T12:12:20.517Z,80.00
2023-07-24T12:13:22.069Z,48.00
2023-07-24T12:14:20.479Z,76.00
2023-07-24T12:15:20.432Z,200.00
2023-07-24T12:16:20.476Z,272.00
2023-07-24T12:17:20.433Z,304.00
2023-07-24T12:18:20.412Z,368.00
2023-07-24T12:19:20.382Z,436.00
2023-07-24T12:20:20.388Z,480.00
2023-07-24T12:21:20.434Z,500.00
2023-07-24T12:22:20.405Z,548.00
2023-07-24T12:23:20.412Z,588.00
2023-07-24T12:24:20.360Z,664.00
2023-07-24T12:25:20.325Z,652.00
2023-07-24T12:26:20.316Z,664.00
2023-07-24T12:27:20.341Z,716.00
2023-07-24T12:28:20.316Z,780.00
2023-07-24T12:29:20.272Z,948.00
2023-07-24T12:30:20.264Z,1084.00
2023-07-24T12:31:20.297Z,1224.00
2023-07-24T12:32:20.243Z,1288.00
2023-07-24T12:33:20.250Z,1400.00
2023-07-24T12:34:20.229Z,1576.00
2023-07-24T12:35:20.244Z,1684.00
2023-07-24T12:36:20.194Z,1792.00
2023-07-24T12:37:20.179Z,1832.00
2023-07-24T12:38:20.229Z,1908.00
2023-07-24T12:39:20.167Z,1936.00
2023-07-24T12:40:20.149Z,2348.00
2023-07-24T12:41:20.141Z,2600.00
2023-07-24T12:42:20.149Z,2432.00
2023-07-24T12:43:20.154Z,2224.00